Forside
METAR-TAF:

METAR-TAF

Lufthavne :

Melbourne, Australien

Breddekreds: 37-40-24S, længdekreds: 144-50-36E, højde: 132 m

Aktuelle vejr

Denne rapport blev lavet for 43 minutter siden, kl. 00:00 UTC
Vind 8 kt fra vestsydvest
Temperatur 14°C
Fugtighed 55%
Tryk 1027 hPa
Sigt 10 km eller mere
Brudte skyer i en højde af 3000 ft

METAR: YMML 210000Z 24008KT 9999 BKN030 14/05 Q1027

Tid: 10:43 (00:43 UTC)

Vejrudsigter

Denne rapport blev lavet for 1 time og 32 minutter siden, kl. 23:11 UTC
Foreløbig gælder fra 21 på 00 UTC til 22 på 06 UTC
Vind 8 kt fra vest
Sigt 10 km eller mere
Brudte skyer i en højde af 4000 ft
Fra 21 på 0600 UTC
Vind 5 kt fra varierende retninger
Sigt 10 km eller mere
Brudte skyer i en højde af 4000 ft
Fra 21 på 1400 UTC
Vind 8 kt fra nord
Sigt 10 km eller mere
Brudte skyer i en højde af 3500 ft

TAF: YMML 202311Z 2100/2206 27008KT 9999 BKN040 FM210600 VRB05KT 9999 BKN040 FM211400 36008KT 9999 BKN035

Vejrobservationer og prognoser fra mere end 4000 lufthavne (METAR og TAF).

De gule og røde prikker repræsenterer de meteorologiske stationer.

Flyt musen over at se navnet på stationen.

Så klik over at se vejr observationer og prognoser.

At skifte det kort: Klik på de grønne knapper med et sort kors for at zoome ind; på den grønne knap med en bindestreg for at zoome ud; eller på de grønne pile for tilstødende kort.


METAR-TAF: